sensor_id;sensor_type;location;lat;lon;timestamp;pressure;altitude;pressure_sealevel;temperature;humidity
80116;BME280;69423;47.608;19.366;2023-08-21T00:00:01;99388.72;;;21.32;90.28
80116;BME280;69423;47.608;19.366;2023-08-21T00:00:32;99392.41;;;21.26;90.41
80116;BME280;69423;47.608;19.366;2023-08-21T00:01:03;99396.78;;;21.27;90.19
80116;BME280;69423;47.608;19.366;2023-08-21T00:01:34;99398.06;;;21.25;90.47
80116;BME280;69423;47.608;19.366;2023-08-21T00:02:05;99393.78;;;21.29;90.66
80116;BME280;69423;47.608;19.366;2023-08-21T00:02:36;99393.56;;;21.30;90.51
80116;BME280;69423;47.608;19.366;2023-08-21T00:03:07;99393.78;;;21.29;90.30
80116;BME280;69423;47.608;19.366;2023-08-21T00:03:39;99395.94;;;21.27;90.44
80116;BME280;69423;47.608;19.366;2023-08-21T00:04:10;99397.94;;;21.31;90.22
80116;BME280;69423;47.608;19.366;2023-08-21T00:04:41;99393.06;;;21.33;90.46
80116;BME280;69423;47.608;19.366;2023-08-21T00:05:12;99394.97;;;21.33;89.95
80116;BME280;69423;47.608;19.366;2023-08-21T00:05:43;99394.38;;;21.31;90.17
80116;BME280;69423;47.608;19.366;2023-08-21T00:06:14;99398.97;;;21.30;89.97
80116;BME280;69423;47.608;19.366;2023-08-21T00:06:45;99397.59;;;21.28;90.19
80116;BME280;69423;47.608;19.366;2023-08-21T00:07:16;99398.31;;;21.23;90.07
80116;BME280;69423;47.608;19.366;2023-08-21T00:07:47;99401.84;;;21.23;90.23
80116;BME280;69423;47.608;19.366;2023-08-21T00:08:21;99401.25;;;21.21;90.09
80116;BME280;69423;47.608;19.366;2023-08-21T00:08:52;99401.84;;;21.23;90.27
80116;BME280;69423;47.608;19.366;2023-08-21T00:09:23;99403.75;;;21.23;90.26
80116;BME280;69423;47.608;19.366;2023-08-21T00:09:54;99395.84;;;21.21;90.62
80116;BME280;69423;47.608;19.366;2023-08-21T00:10:25;99398.31;;;21.23;90.60
80116;BME280;69423;47.608;19.366;2023-08-21T00:10:56;99397.75;;;21.21;90.68
80116;BME280;69423;47.608;19.366;2023-08-21T00:11:28;99399.59;;;21.20;90.02
80116;BME280;69423;47.608;19.366;2023-08-21T00:11:59;99397.16;;;21.19;90.52
80116;BME280;69423;47.608;19.366;2023-08-21T00:12:30;99391.38;;;21.15;91.07
80116;BME280;69423;47.608;19.366;2023-08-21T00:13:01;99391.16;;;21.17;91.09
80116;BME280;69423;47.608;19.366;2023-08-21T00:13:32;99403.16;;;21.21;91.03
80116;BME280;69423;47.608;19.366;2023-08-21T00:14:03;99395.84;;;21.21;90.64
80116;BME280;69423;47.608;19.366;2023-08-21T00:14:34;99402.09;;;21.22;91.05
80116;BME280;69423;47.608;19.366;2023-08-21T00:15:05;99404.72;;;21.17;91.93
80116;BME280;69423;47.608;19.366;2023-08-21T00:15:38;99405.41;;;21.12;91.80
80116;BME280;69423;47.608;19.366;2023-08-21T00:16:09;99404.59;;;21.12;92.16
80116;BME280;69423;47.608;19.366;2023-08-21T00:16:40;99400.56;;;21.14;91.87
80116;BME280;69423;47.608;19.366;2023-08-21T00:17:11;99409.28;;;21.16;91.54
80116;BME280;69423;47.608;19.366;2023-08-21T00:17:43;99406.69;;;21.21;91.29
80116;BME280;69423;47.608;19.366;2023-08-21T00:18:14;99400.78;;;21.25;91.03
80116;BME280;69423;47.608;19.366;2023-08-21T00:18:45;99403.00;;;21.28;90.32
80116;BME280;69423;47.608;19.366;2023-08-21T00:19:16;99403.25;;;21.26;90.15
80116;BME280;69423;47.608;19.366;2023-08-21T00:19:47;99414.69;;;21.28;89.98
80116;BME280;69423;47.608;19.366;2023-08-21T00:20:18;99404.91;;;21.27;89.71
80116;BME280;69423;47.608;19.366;2023-08-21T00:20:49;99405.72;;;21.28;89.48
80116;BME280;69423;47.608;19.366;2023-08-21T00:21:20;99402.78;;;21.29;90.23
80116;BME280;69423;47.608;19.366;2023-08-21T00:21:51;99396.78;;;21.27;90.37
80116;BME280;69423;47.608;19.366;2023-08-21T00:22:22;99398.16;;;21.30;90.65
80116;BME280;69423;47.608;19.366;2023-08-21T00:22:53;99402.44;;;21.26;90.52
80116;BME280;69423;47.608;19.366;2023-08-21T00:23:24;99405.38;;;21.24;90.23
80116;BME280;69423;47.608;19.366;2023-08-21T00:23:55;99409.47;;;21.27;90.04
80116;BME280;69423;47.608;19.366;2023-08-21T00:24:26;99401.34;;;21.27;90.12
80116;BME280;69423;47.608;19.366;2023-08-21T00:24:58;99405.59;;;21.22;90.15
80116;BME280;69423;47.608;19.366;2023-08-21T00:25:29;99405.13;;;21.26;90.23
80116;BME280;69423;47.608;19.366;2023-08-21T00:26:00;99400.06;;;21.29;90.01
80116;BME280;69423;47.608;19.366;2023-08-21T00:26:31;99407.34;;;21.29;89.84
80116;BME280;69423;47.608;19.366;2023-08-21T00:27:02;99409.00;;;21.30;90.20
80116;BME280;69423;47.608;19.366;2023-08-21T00:27:34;99406.88;;;21.32;89.50
80116;BME280;69423;47.608;19.366;2023-08-21T00:28:05;99410.66;;;21.31;89.81
80116;BME280;69423;47.608;19.366;2023-08-21T00:28:36;99411.50;;;21.31;89.95
80116;BME280;69423;47.608;19.366;2023-08-21T00:29:07;99410.34;;;21.27;89.76
80116;BME280;69423;47.608;19.366;2023-08-21T00:29:38;99406.78;;;21.27;90.71
80116;BME280;69423;47.608;19.366;2023-08-21T00:30:10;99408.66;;;21.26;90.08
80116;BME280;69423;47.608;19.366;2023-08-21T00:30:42;99405.97;;;21.26;89.95
80116;BME280;69423;47.608;19.366;2023-08-21T00:31:13;99408.44;;;21.28;89.95
80116;BME280;69423;47.608;19.366;2023-08-21T00:31:44;99411.72;;;21.30;90.74
80116;BME280;69423;47.608;19.366;2023-08-21T00:32:15;99402.50;;;21.31;90.44
80116;BME280;69423;47.608;19.366;2023-08-21T00:32:46;99412.78;;;21.29;90.01
80116;BME280;69423;47.608;19.366;2023-08-21T00:33:17;99410.06;;;21.29;90.53
80116;BME280;69423;47.608;19.366;2023-08-21T00:33:48;99416.56;;;21.28;90.54
80116;BME280;69423;47.608;19.366;2023-08-21T00:34:19;99414.44;;;21.30;90.01
80116;BME280;69423;47.608;19.366;2023-08-21T00:34:50;99412.78;;;21.29;89.64
80116;BME280;69423;47.608;19.366;2023-08-21T00:35:21;99416.06;;;21.31;89.99
80116;BME280;69423;47.608;19.366;2023-08-21T00:35:53;99416.41;;;21.34;90.08
80116;BME280;69423;47.608;19.366;2023-08-21T00:36:24;99411.00;;;21.34;89.32
80116;BME280;69423;47.608;19.366;2023-08-21T00:36:55;99413.94;;;21.33;89.27
80116;BME280;69423;47.608;19.366;2023-08-21T00:37:26;99409.59;;;21.32;89.16
80116;BME280;69423;47.608;19.366;2023-08-21T00:37:57;99413.38;;;21.31;89.66
80116;BME280;69423;47.608;19.366;2023-08-21T00:38:28;99412.53;;;21.30;89.56
80116;BME280;69423;47.608;19.366;2023-08-21T00:38:59;99412.31;;;21.32;89.22
80116;BME280;69423;47.608;19.366;2023-08-21T00:39:30;99411.72;;;21.30;89.29
80116;BME280;69423;47.608;19.366;2023-08-21T00:40:01;99412.31;;;21.32;88.91
80116;BME280;69423;47.608;19.366;2023-08-21T00:40:32;99412.78;;;21.29;89.46
80116;BME280;69423;47.608;19.366;2023-08-21T00:41:03;99410.06;;;21.29;89.75
80116;BME280;69423;47.608;19.366;2023-08-21T00:41:34;99418.69;;;21.26;89.74
80116;BME280;69423;47.608;19.366;2023-08-21T00:42:05;99417.88;;;21.25;89.98
80116;BME280;69423;47.608;19.366;2023-08-21T00:42:38;99411.72;;;21.30;89.83
80116;BME280;69423;47.608;19.366;2023-08-21T00:43:09;99418.06;;;21.35;88.85
80116;BME280;69423;47.608;19.366;2023-08-21T00:43:40;99418.91;;;21.36;89.38
80116;BME280;69423;47.608;19.366;2023-08-21T00:44:11;99417.81;;;21.37;89.02
80116;BME280;69423;47.608;19.366;2023-08-21T00:44:42;99413.47;;;21.36;88.94
80116;BME280;69423;47.608;19.366;2023-08-21T00:45:13;99415.34;;;21.35;89.03
80116;BME280;69423;47.608;19.366;2023-08-21T00:45:45;99418.06;;;21.35;88.91
80116;BME280;69423;47.608;19.366;2023-08-21T00:46:17;99417.25;;;21.35;89.34
80116;BME280;69423;47.608;19.366;2023-08-21T00:46:48;99414.75;;;21.33;89.85
80116;BME280;69423;47.608;19.366;2023-08-21T00:47:19;99417.81;;;21.37;89.16
80116;BME280;69423;47.608;19.366;2023-08-21T00:47:51;99421.50;;;21.42;88.57
80116;BME280;69423;47.608;19.366;2023-08-21T00:48:22;99418.53;;;21.44;88.46
80116;BME280;69423;47.608;19.366;2023-08-21T00:48:53;99420.41;;;21.43;89.09
80116;BME280;69423;47.608;19.366;2023-08-21T00:49:24;99420.69;;;21.42;88.86
80116;BME280;69423;47.608;19.366;2023-08-21T00:49:56;99417.59;;;21.38;89.27
80116;BME280;69423;47.608;19.366;2023-08-21T00:50:27;99418.78;;;21.42;89.08
80116;BME280;69423;47.608;19.366;2023-08-21T00:50:58;99420.19;;;21.33;89.52
80116;BME280;69423;47.608;19.366;2023-08-21T00:51:29;99416.06;;;21.31;89.82
80116;BME280;69423;47.608;19.366;2023-08-21T00:52:01;99408.78;;;21.31;89.86
80116;BME280;69423;47.608;19.366;2023-08-21T00:52:34;99418.19;;;21.29;89.61
80116;BME280;69423;47.608;19.366;2023-08-21T00:53:06;99421.25;;;21.32;89.72
80116;BME280;69423;47.608;19.366;2023-08-21T00:53:38;99417.25;;;21.35;89.18
80116;BME280;69423;47.608;19.366;2023-08-21T00:54:09;99424.31;;;21.36;89.30
80116;BME280;69423;47.608;19.366;2023-08-21T00:54:41;99415.09;;;21.37;89.28
80116;BME280;69423;47.608;19.366;2023-08-21T00:55:13;99425.38;;;21.35;89.24
80116;BME280;69423;47.608;19.366;2023-08-21T00:55:45;99422.19;;;21.38;89.93
80116;BME280;69423;47.608;19.366;2023-08-21T00:56:16;99419.47;;;21.38;89.78
80116;BME280;69423;47.608;19.366;2023-08-21T00:56:47;99417.25;;;21.35;89.55
80116;BME280;69423;47.608;19.366;2023-08-21T00:57:20;99419.38;;;21.33;89.47
80116;BME280;69423;47.608;19.366;2023-08-21T00:57:51;99417.25;;;21.35;90.24
80116;BME280;69423;47.608;19.366;2023-08-21T00:58:22;99412.91;;;21.34;89.80
80116;BME280;69423;47.608;19.366;2023-08-21T00:58:53;99428.09;;;21.35;89.72
80116;BME280;69423;47.608;19.366;2023-08-21T00:59:25;99417.81;;;21.37;90.05
80116;BME280;69423;47.608;19.366;2023-08-21T00:59:56;99419.13;;;21.34;89.87
80116;BME280;69423;47.608;19.366;2023-08-21T01:00:27;99425.38;;;21.35;89.41
80116;BME280;69423;47.608;19.366;2023-08-21T01:00:59;99418.31;;;21.34;89.62
80116;BME280;69423;47.608;19.366;2023-08-21T01:01:32;99411.97;;;21.28;89.97
80116;BME280;69423;47.608;19.366;2023-08-21T01:02:04;99421.50;;;21.31;90.18
80116;BME280;69423;47.608;19.366;2023-08-21T01:02:35;99423.63;;;21.29;90.23
80116;BME280;69423;47.608;19.366;2023-08-21T01:03:06;99426.09;;;21.30;90.17
80116;BME280;69423;47.608;19.366;2023-08-21T01:03:37;99427.41;;;21.28;90.39
80116;BME280;69423;47.608;19.366;2023-08-21T01:04:09;99425.44;;;21.23;90.22
80116;BME280;69423;47.608;19.366;2023-08-21T01:04:40;99419.16;;;21.22;90.13
80116;BME280;69423;47.608;19.366;2023-08-21T01:05:11;99422.97;;;21.21;90.31
80116;BME280;69423;47.608;19.366;2023-08-21T01:05:42;99423.31;;;21.25;90.35
80116;BME280;69423;47.608;19.366;2023-08-21T01:06:13;99417.88;;;21.25;90.14
80116;BME280;69423;47.608;19.366;2023-08-21T01:06:44;99420.34;;;21.27;89.55
80116;BME280;69423;47.608;19.366;2023-08-21T01:07:15;99424.13;;;21.26;90.46
80116;BME280;69423;47.608;19.366;2023-08-21T01:08:01;99417.03;;;21.25;90.72
80116;BME280;69423;47.608;19.366;2023-08-21T01:08:50;99427.88;;;21.25;90.33
80116;BME280;69423;47.608;19.366;2023-08-21T01:09:31;99426.25;;;21.23;90.39
80116;BME280;69423;47.608;19.366;2023-08-21T01:10:14;99421.88;;;21.22;90.22
80116;BME280;69423;47.608;19.366;2023-08-21T01:11:00;99420.84;;;21.23;90.47
80116;BME280;69423;47.608;19.366;2023-08-21T01:11:46;99423.53;;;21.23;90.30
80116;BME280;69423;47.608;19.366;2023-08-21T01:13:04;99421.88;;;21.22;90.43
80116;BME280;69423;47.608;19.366;2023-08-21T01:14:30;99423.53;;;21.23;90.08
80116;BME280;69423;47.608;19.366;2023-08-21T01:15:06;99418.13;;;21.23;90.27
80116;BME280;69423;47.608;19.366;2023-08-21T01:15:38;99428.72;;;21.25;90.10
80116;BME280;69423;47.608;19.366;2023-08-21T01:16:13;99426.25;;;21.23;90.16
80116;BME280;69423;47.608;19.366;2023-08-21T01:16:47;99428.72;;;21.25;90.52
80116;BME280;69423;47.608;19.366;2023-08-21T01:17:22;99426.25;;;21.23;90.20
80116;BME280;69423;47.608;19.366;2023-08-21T01:17:54;99428.47;;;21.27;89.96
80116;BME280;69423;47.608;19.366;2023-08-21T01:18:28;99430.59;;;21.25;89.78
80116;BME280;69423;47.608;19.366;2023-08-21T01:19:02;99423.53;;;21.23;90.06
80116;BME280;69423;47.608;19.366;2023-08-21T01:19:41;99430.59;;;21.25;90.61
80116;BME280;69423;47.608;19.366;2023-08-21T01:20:14;99420.47;;;21.20;90.58
80116;BME280;69423;47.608;19.366;2023-08-21T01:20:47;99423.44;;;21.18;90.67
80116;BME280;69423;47.608;19.366;2023-08-21T01:21:19;99428.84;;;21.18;90.46
80116;BME280;69423;47.608;19.366;2023-08-21T01:21:50;99422.38;;;21.19;90.34
80116;BME280;69423;47.608;19.366;2023-08-21T01:22:26;99426.13;;;21.18;90.73
80116;BME280;69423;47.608;19.366;2023-08-21T01:23:04;99424.28;;;21.19;90.71
80116;BME280;69423;47.608;19.366;2023-08-21T01:23:40;99421.78;;;21.17;90.34
80116;BME280;69423;47.608;19.366;2023-08-21T01:24:12;99423.44;;;21.18;90.57
80116;BME280;69423;47.608;19.366;2023-08-21T01:24:43;99421.78;;;21.17;90.51
80116;BME280;69423;47.608;19.366;2023-08-21T01:25:14;99421.78;;;21.17;90.42
80116;BME280;69423;47.608;19.366;2023-08-21T01:25:46;99424.75;;;21.16;90.78
80116;BME280;69423;47.608;19.366;2023-08-21T01:26:18;99419.53;;;21.14;90.38
80116;BME280;69423;47.608;19.366;2023-08-21T01:26:49;99423.81;;;21.10;90.79
80116;BME280;69423;47.608;19.366;2023-08-21T01:27:20;99422.41;;;21.08;90.66
80116;BME280;69423;47.608;19.366;2023-08-21T01:27:52;99420.28;;;21.10;90.78
80116;BME280;69423;47.608;19.366;2023-08-21T01:28:24;99420.28;;;21.10;90.83
80116;BME280;69423;47.608;19.366;2023-08-21T01:28:55;99431.34;;;21.08;90.81
80116;BME280;69423;47.608;19.366;2023-08-21T01:29:26;99426.19;;;21.07;90.91
80116;BME280;69423;47.608;19.366;2023-08-21T01:30:00;99434.56;;;21.05;91.07
80116;BME280;69423;47.608;19.366;2023-08-21T01:30:33;99430.91;;;20.99;90.97
80116;BME280;69423;47.608;19.366;2023-08-21T01:31:23;99426.81;;;20.97;90.85
80116;BME280;69423;47.608;19.366;2023-08-21T01:33:33;99423.50;;;20.95;90.52
80116;BME280;69423;47.608;19.366;2023-08-21T01:34:08;99422.69;;;20.94;90.70
80116;BME280;69423;47.608;19.366;2023-08-21T01:34:42;99419.97;;;20.94;90.40
80116;BME280;69423;47.608;19.366;2023-08-21T01:35:14;99426.44;;;20.93;90.73
80116;BME280;69423;47.608;19.366;2023-08-21T01:35:45;99430.22;;;20.92;90.69
80116;BME280;69423;47.608;19.366;2023-08-21T01:36:17;99434.13;;;20.85;90.77
80116;BME280;69423;47.608;19.366;2023-08-21T01:36:48;99434.13;;;20.85;91.11
80116;BME280;69423;47.608;19.366;2023-08-21T01:37:20;99426.59;;;20.87;91.17
80116;BME280;69423;47.608;19.366;2023-08-21T01:37:52;99430.59;;;20.84;91.18
80116;BME280;69423;47.608;19.366;2023-08-21T01:38:25;99428.63;;;20.79;91.22
80116;BME280;69423;47.608;19.366;2023-08-21T01:38:56;99437.56;;;20.80;91.32
80116;BME280;69423;47.608;19.366;2023-08-21T01:39:28;99431.06;;;20.81;91.11
80116;BME280;69423;47.608;19.366;2023-08-21T01:39:59;99440.84;;;20.82;91.13
80116;BME280;69423;47.608;19.366;2023-08-21T01:40:30;99430.00;;;20.82;91.30
80116;BME280;69423;47.608;19.366;2023-08-21T01:41:02;99430.84;;;20.82;91.29
80116;BME280;69423;47.608;19.366;2023-08-21T01:41:33;99434.34;;;20.83;90.92
80116;BME280;69423;47.608;19.366;2023-08-21T01:42:04;99440.03;;;20.81;90.92
80116;BME280;69423;47.608;19.366;2023-08-21T01:42:35;99439.19;;;20.81;91.74
80116;BME280;69423;47.608;19.366;2023-08-21T01:43:06;99429.19;;;20.81;91.45
80116;BME280;69423;47.608;19.366;2023-08-21T01:43:37;99438.38;;;20.80;91.37
80116;BME280;69423;47.608;19.366;2023-08-21T01:44:08;99436.75;;;20.79;91.62
80116;BME280;69423;47.608;19.366;2023-08-21T01:44:39;99432.38;;;20.78;91.00
80116;BME280;69423;47.608;19.366;2023-08-21T01:45:10;99436.75;;;20.79;91.20
80116;BME280;69423;47.608;19.366;2023-08-21T01:45:41;99436.75;;;20.79;91.46
80116;BME280;69423;47.608;19.366;2023-08-21T01:46:12;99435.09;;;20.78;90.89
80116;BME280;69423;47.608;19.366;2023-08-21T01:46:43;99432.38;;;20.78;91.35
80116;BME280;69423;47.608;19.366;2023-08-21T01:47:14;99440.50;;;20.78;91.74
80116;BME280;69423;47.608;19.366;2023-08-21T01:47:45;99433.19;;;20.79;91.82
80116;BME280;69423;47.608;19.366;2023-08-21T01:48:16;99435.91;;;20.79;91.59
80116;BME280;69423;47.608;19.366;2023-08-21T01:48:47;99437.78;;;20.78;91.88
80116;BME280;69423;47.608;19.366;2023-08-21T01:49:19;99437.22;;;20.76;91.49
80116;BME280;69423;47.608;19.366;2023-08-21T01:49:50;99430.16;;;20.75;91.07
80116;BME280;69423;47.608;19.366;2023-08-21T01:50:23;99431.78;;;20.76;91.55
80116;BME280;69423;47.608;19.366;2023-08-21T01:50:54;99436.38;;;20.76;91.78
80116;BME280;69423;47.608;19.366;2023-08-21T01:51:25;99432.84;;;20.75;91.79
80116;BME280;69423;47.608;19.366;2023-08-21T01:51:56;99440.41;;;20.73;91.90
80116;BME280;69423;47.608;19.366;2023-08-21T01:52:27;99442.53;;;20.71;92.01
80116;BME280;69423;47.608;19.366;2023-08-21T01:52:58;99432.97;;;20.69;92.10
80116;BME280;69423;47.608;19.366;2023-08-21T01:53:29;99439.81;;;20.71;91.99
80116;BME280;69423;47.608;19.366;2023-08-21T01:54:00;99438.50;;;20.74;92.19
80116;BME280;69423;47.608;19.366;2023-08-21T01:54:31;99428.97;;;20.71;92.14
80116;BME280;69423;47.608;19.366;2023-08-21T01:55:02;99438.50;;;20.74;92.18
80116;BME280;69423;47.608;19.366;2023-08-21T01:55:34;99438.16;;;20.70;92.60
80116;BME280;69423;47.608;19.366;2023-08-21T01:56:05;99437.34;;;20.70;92.45
80116;BME280;69423;47.608;19.366;2023-08-21T01:56:36;99437.34;;;20.70;92.17
80116;BME280;69423;47.608;19.366;2023-08-21T01:57:07;99442.16;;;20.68;92.84
80116;BME280;69423;47.608;19.366;2023-08-21T01:57:38;99441.34;;;20.67;92.43
80116;BME280;69423;47.608;19.366;2023-08-21T01:58:10;99437.09;;;20.71;91.94
80116;BME280;69423;47.608;19.366;2023-08-21T01:58:41;99433.81;;;20.69;92.31
80116;BME280;69423;47.608;19.366;2023-08-21T01:59:12;99435.13;;;20.67;92.23
80116;BME280;69423;47.608;19.366;2023-08-21T01:59:43;99438.16;;;20.70;92.44
80116;BME280;69423;47.608;19.366;2023-08-21T02:00:14;99437.34;;;20.70;92.54
80116;BME280;69423;47.608;19.366;2023-08-21T02:00:46;99434.63;;;20.70;92.09
80116;BME280;69423;47.608;19.366;2023-08-21T02:01:17;99438.16;;;20.70;91.75
80116;BME280;69423;47.608;19.366;2023-08-21T02:01:49;99428.84;;;20.66;92.02
80116;BME280;69423;47.608;19.366;2023-08-21T02:02:20;99434.25;;;20.66;91.99
80116;BME280;69423;47.608;19.366;2023-08-21T02:02:51;99436.97;;;20.66;92.04
80116;BME280;69423;47.608;19.366;2023-08-21T02:03:25;99426.72;;;20.68;92.16
80116;BME280;69423;47.608;19.366;2023-08-21T02:03:56;99436.66;;;20.63;92.10
80116;BME280;69423;47.608;19.366;2023-08-21T02:04:27;99437.47;;;20.63;92.39
80116;BME280;69423;47.608;19.366;2023-08-21T02:04:58;99430.97;;;20.64;92.29
80116;BME280;69423;47.608;19.366;2023-08-21T02:05:29;99437.47;;;20.63;91.93
80116;BME280;69423;47.608;19.366;2023-08-21T02:06:00;99432.50;;;20.60;92.32
80116;BME280;69423;47.608;19.366;2023-08-21T02:06:31;99435.66;;;20.57;92.38
80116;BME280;69423;47.608;19.366;2023-08-21T02:07:02;99438.78;;;20.60;92.10
80116;BME280;69423;47.608;19.366;2023-08-21T02:07:33;99436.50;;;20.57;92.10
80116;BME280;69423;47.608;19.366;2023-08-21T02:08:04;99437.34;;;20.58;91.71
80116;BME280;69423;47.608;19.366;2023-08-21T02:08:36;99433.78;;;20.57;92.00
80116;BME280;69423;47.608;19.366;2023-08-21T02:09:07;99435.66;;;20.57;92.10
80116;BME280;69423;47.608;19.366;2023-08-21T02:09:38;99434.00;;;20.56;92.33
80116;BME280;69423;47.608;19.366;2023-08-21T02:10:09;99441.31;;;20.55;92.42
80116;BME280;69423;47.608;19.366;2023-08-21T02:10:50;99441.31;;;20.55;92.38
80116;BME280;69423;47.608;19.366;2023-08-21T02:11:21;99436.50;;;20.57;92.24
80116;BME280;69423;47.608;19.366;2023-08-21T02:11:52;99436.72;;;20.56;92.33
80116;BME280;69423;47.608;19.366;2023-08-21T02:12:23;99442.97;;;20.56;92.37
80116;BME280;69423;47.608;19.366;2023-08-21T02:12:54;99440.91;;;20.58;92.31
80116;BME280;69423;47.608;19.366;2023-08-21T02:13:25;99444.84;;;20.56;92.39
80116;BME280;69423;47.608;19.366;2023-08-21T02:13:56;99440.72;;;20.53;92.48
80116;BME280;69423;47.608;19.366;2023-08-21T02:14:28;99444.25;;;20.54;92.08
80116;BME280;69423;47.608;19.366;2023-08-21T02:14:59;99444.25;;;20.54;92.48
80116;BME280;69423;47.608;19.366;2023-08-21T02:15:30;99443.22;;;20.55;91.95
80116;BME280;69423;47.608;19.366;2023-08-21T02:16:01;99442.97;;;20.56;92.57
80116;BME280;69423;47.608;19.366;2023-08-21T02:16:32;99436.13;;;20.54;91.75
80116;BME280;69423;47.608;19.366;2023-08-21T02:17:03;99438.84;;;20.54;92.46
80116;BME280;69423;47.608;19.366;2023-08-21T02:17:36;99441.53;;;20.54;92.61
80116;BME280;69423;47.608;19.366;2023-08-21T02:18:07;99439.69;;;20.54;92.71
80116;BME280;69423;47.608;19.366;2023-08-21T02:18:38;99444.25;;;20.54;92.36
80116;BME280;69423;47.608;19.366;2023-08-21T02:19:09;99440.97;;;20.52;92.35
80116;BME280;69423;47.608;19.366;2023-08-21T02:19:40;99443.06;;;20.50;92.60
80116;BME280;69423;47.608;19.366;2023-08-21T02:20:11;99437.66;;;20.50;92.84
80116;BME280;69423;47.608;19.366;2023-08-21T02:20:42;99443.44;;;20.53;92.81
80116;BME280;69423;47.608;19.366;2023-08-21T02:21:13;99443.06;;;20.50;92.72
80116;BME280;69423;47.608;19.366;2023-08-21T02:21:44;99436.84;;;20.49;93.52
80116;BME280;69423;47.608;19.366;2023-08-21T02:22:15;99440.63;;;20.48;93.19
80116;BME280;69423;47.608;19.366;2023-08-21T02:22:46;99440.38;;;20.50;93.19
80116;BME280;69423;47.608;19.366;2023-08-21T02:23:17;99444.75;;;20.51;93.57
80116;BME280;69423;47.608;19.366;2023-08-21T02:23:48;99440.97;;;20.52;93.24
80116;BME280;69423;47.608;19.366;2023-08-21T02:24:19;99437.19;;;20.53;93.46
80116;BME280;69423;47.608;19.366;2023-08-21T02:24:50;99439.91;;;20.53;92.94
80116;BME280;69423;47.608;19.366;2023-08-21T02:25:21;99436.72;;;20.56;92.80
80116;BME280;69423;47.608;19.366;2023-08-21T02:25:53;99436.13;;;20.54;92.86
80116;BME280;69423;47.608;19.366;2023-08-21T02:26:24;99442.97;;;20.56;93.07
80116;BME280;69423;47.608;19.366;2023-08-21T02:26:55;99433.59;;;20.59;92.84
80116;BME280;69423;47.608;19.366;2023-08-21T02:27:26;99437.09;;;20.59;93.04
80116;BME280;69423;47.608;19.366;2023-08-21T02:27:57;99436.28;;;20.59;92.73
80116;BME280;69423;47.608;19.366;2023-08-21T02:28:28;99437.91;;;20.60;92.78
80116;BME280;69423;47.608;19.366;2023-08-21T02:28:59;99436.66;;;20.63;92.74
80116;BME280;69423;47.608;19.366;2023-08-21T02:29:30;99437.47;;;20.63;92.64
80116;BME280;69423;47.608;19.366;2023-08-21T02:30:01;99440.75;;;20.65;92.66
80116;BME280;69423;47.608;19.366;2023-08-21T02:30:32;99444.06;;;20.67;92.88
80116;BME280;69423;47.608;19.366;2023-08-21T02:31:03;99428.03;;;20.66;92.60
80116;BME280;69423;47.608;19.366;2023-08-21T02:31:35;99437.81;;;20.67;92.41
80116;BME280;69423;47.608;19.366;2023-08-21T02:32:06;99442.16;;;20.68;92.51
80116;BME280;69423;47.608;19.366;2023-08-21T02:32:37;99432.41;;;20.67;92.89
80116;BME280;69423;47.608;19.366;2023-08-21T02:33:10;99434.63;;;20.70;92.75
80116;BME280;69423;47.608;19.366;2023-08-21T02:33:41;99432.50;;;20.72;92.26
80116;BME280;69423;47.608;19.366;2023-08-21T02:34:13;99438.97;;;20.71;92.32
80116;BME280;69423;47.608;19.366;2023-08-21T02:34:44;99438.38;;;20.69;92.44
80116;BME280;69423;47.608;19.366;2023-08-21T02:35:15;99435.44;;;20.70;92.97
80116;BME280;69423;47.608;19.366;2023-08-21T02:35:46;99433.31;;;20.72;92.62
80116;BME280;69423;47.608;19.366;2023-08-21T02:36:17;99434.41;;;20.71;92.98
80116;BME280;69423;47.608;19.366;2023-08-21T02:36:48;99436.84;;;20.73;92.80
80116;BME280;69423;47.608;19.366;2023-08-21T02:37:19;99433.09;;;20.74;92.78
80116;BME280;69423;47.608;19.366;2023-08-21T02:37:50;99433.09;;;20.74;92.77
80116;BME280;69423;47.608;19.366;2023-08-21T02:38:21;99436.63;;;20.74;92.69
80116;BME280;69423;47.608;19.366;2023-08-21T02:38:52;99438.50;;;20.74;92.30
80116;BME280;69423;47.608;19.366;2023-08-21T02:39:24;99436.03;;;20.72;92.69
80116;BME280;69423;47.608;19.366;2023-08-21T02:39:55;99436.03;;;20.72;92.99
80116;BME280;69423;47.608;19.366;2023-08-21T02:40:26;99433.56;;;20.71;92.69
80116;BME280;69423;47.608;19.366;2023-08-21T02:40:57;99436.63;;;20.74;92.85
80116;BME280;69423;47.608;19.366;2023-08-21T02:41:28;99438.75;;;20.72;92.88
80116;BME280;69423;47.608;19.366;2023-08-21T02:41:59;99439.31;;;20.74;92.91
80116;BME280;69423;47.608;19.366;2023-08-21T02:42:30;99435.56;;;20.75;93.02
80116;BME280;69423;47.608;19.366;2023-08-21T02:43:01;99432.84;;;20.75;92.42
80116;BME280;69423;47.608;19.366;2023-08-21T02:43:32;99439.91;;;20.76;92.66
80116;BME280;69423;47.608;19.366;2023-08-21T02:44:03;99432.59;;;20.77;92.70
80116;BME280;69423;47.608;19.366;2023-08-21T02:44:34;99435.81;;;20.74;92.61
80116;BME280;69423;47.608;19.366;2023-08-21T02:45:05;99435.31;;;20.77;92.53
80116;BME280;69423;47.608;19.366;2023-08-21T02:45:40;99444.28;;;20.77;92.09
80116;BME280;69423;47.608;19.366;2023-08-21T02:46:11;99442.41;;;20.78;92.36
80116;BME280;69423;47.608;19.366;2023-08-21T02:46:42;99423.41;;;20.78;92.46
80116;BME280;69423;47.608;19.366;2023-08-21T02:47:13;99434.50;;;20.76;92.56
80116;BME280;69423;47.608;19.366;2023-08-21T02:47:44;99437.44;;;20.75;92.65
80116;BME280;69423;47.608;19.366;2023-08-21T02:48:15;99438.28;;;20.75;92.84
80116;BME280;69423;47.608;19.366;2023-08-21T02:48:46;99444.75;;;20.74;92.71
80116;BME280;69423;47.608;19.366;2023-08-21T02:49:17;99440.72;;;20.77;92.62